createdAt,value
2019-03-03T00:00:30.895Z,7.50
2019-03-03T00:01:30.878Z,8.60
2019-03-03T00:02:30.892Z,6.70
2019-03-03T00:03:30.868Z,5.20
2019-03-03T00:04:30.850Z,6.60
2019-03-03T00:05:30.831Z,9.20
2019-03-03T00:06:30.828Z,7.50
2019-03-03T00:07:30.831Z,6.90
2019-03-03T00:08:30.796Z,7.20
2019-03-03T00:09:30.795Z,5.70
2019-03-03T00:10:30.782Z,11.20
2019-03-03T00:11:30.763Z,6.80
2019-03-03T00:12:30.765Z,5.50
2019-03-03T00:13:30.776Z,8.60
2019-03-03T00:14:30.729Z,7.90
2019-03-03T00:15:30.717Z,5.70
2019-03-03T00:16:30.709Z,7.00
2019-03-03T00:17:30.699Z,5.30
2019-03-03T00:18:30.714Z,7.60
2019-03-03T00:19:30.675Z,3.60
2019-03-03T00:20:30.663Z,6.50
2019-03-03T00:21:30.658Z,7.40
2019-03-03T00:22:30.639Z,5.40
2019-03-03T00:23:30.652Z,7.10
2019-03-03T00:24:30.643Z,6.30
2019-03-03T00:25:30.602Z,7.90
2019-03-03T00:26:30.594Z,6.20
2019-03-03T00:27:30.582Z,6.00
2019-03-03T00:28:30.597Z,6.30
2019-03-03T00:29:30.561Z,5.30
2019-03-03T00:30:30.547Z,7.70
2019-03-03T00:31:30.547Z,6.30
2019-03-03T00:32:30.525Z,5.90
2019-03-03T00:33:30.538Z,7.30
2019-03-03T00:34:30.507Z,7.00
2019-03-03T00:35:31.637Z,9.30
2019-03-03T00:36:30.489Z,7.30
2019-03-03T00:37:30.472Z,6.00
2019-03-03T00:38:30.491Z,6.60
2019-03-03T00:39:30.447Z,6.60
2019-03-03T00:40:30.439Z,6.70
2019-03-03T00:41:30.423Z,8.20
2019-03-03T00:42:30.417Z,9.30
2019-03-03T00:43:30.425Z,5.00
2019-03-03T00:44:30.399Z,6.20
2019-03-03T00:45:30.377Z,9.20
2019-03-03T00:46:30.369Z,5.20
2019-03-03T00:47:30.356Z,7.80
2019-03-03T00:48:30.383Z,7.00
2019-03-03T00:49:30.335Z,8.50
2019-03-03T00:50:30.322Z,8.00
2019-03-03T00:51:30.312Z,6.70
2019-03-03T00:52:30.299Z,4.90
2019-03-03T00:53:30.318Z,6.20
2019-03-03T00:54:30.276Z,8.00
2019-03-03T00:55:30.277Z,5.40
2019-03-03T00:56:30.255Z,6.40
2019-03-03T00:57:30.242Z,5.60
2019-03-03T00:58:30.242Z,6.60
2019-03-03T00:59:30.253Z,6.30
2019-03-03T01:00:30.211Z,6.20
2019-03-03T01:01:30.199Z,6.00
2019-03-03T01:02:30.187Z,6.80
2019-03-03T01:03:30.178Z,8.80
2019-03-03T01:04:30.193Z,7.80
2019-03-03T01:05:30.165Z,5.90
2019-03-03T01:06:30.149Z,5.10
2019-03-03T01:07:30.188Z,7.70
2019-03-03T01:08:30.117Z,5.90
2019-03-03T01:09:30.150Z,5.50
2019-03-03T01:10:30.096Z,5.50
2019-03-03T01:11:30.086Z,8.00
2019-03-03T01:12:30.082Z,6.30
2019-03-03T01:13:30.064Z,7.70
2019-03-03T01:14:30.079Z,6.40
2019-03-03T01:15:30.041Z,6.20
2019-03-03T01:16:30.031Z,8.50
2019-03-03T01:17:30.019Z,7.00
2019-03-03T01:18:30.006Z,8.20
2019-03-03T01:19:30.018Z,6.50
2019-03-03T01:20:29.987Z,6.40
2019-03-03T01:21:29.985Z,8.40
2019-03-03T01:22:29.978Z,6.90
2019-03-03T01:23:29.949Z,7.90
2019-03-03T01:24:29.977Z,9.20
2019-03-03T01:25:29.936Z,8.90
2019-03-03T01:26:29.913Z,8.40
2019-03-03T01:27:29.908Z,7.10
2019-03-03T01:28:29.913Z,7.30
2019-03-03T01:29:29.904Z,5.80
2019-03-03T01:30:29.869Z,6.80
2019-03-03T01:31:29.857Z,5.60
2019-03-03T01:32:29.848Z,8.30
2019-03-03T01:33:29.843Z,5.40
2019-03-03T01:34:29.849Z,8.20
2019-03-03T01:35:29.813Z,7.00
2019-03-03T01:36:29.801Z,5.10
2019-03-03T01:37:29.789Z,7.60
2019-03-03T01:38:29.780Z,7.50
2019-03-03T01:39:29.800Z,5.80
2019-03-03T01:40:29.772Z,6.70
2019-03-03T01:41:29.799Z,7.80
2019-03-03T01:42:29.732Z,8.10
2019-03-03T01:43:29.721Z,6.60
2019-03-03T01:44:29.782Z,7.50
2019-03-03T01:45:29.698Z,5.00
2019-03-03T01:46:29.689Z,9.00
2019-03-03T01:47:29.681Z,7.30
2019-03-03T01:48:29.676Z,6.70
2019-03-03T01:49:29.660Z,6.40
2019-03-03T01:50:30.060Z,6.30
2019-03-03T01:51:29.641Z,5.80
2019-03-03T01:52:29.659Z,6.60
2019-03-03T01:53:29.609Z,6.40
2019-03-03T01:54:29.677Z,8.60
2019-03-03T01:55:29.611Z,8.00
2019-03-03T01:56:29.576Z,7.80
2019-03-03T01:57:29.564Z,6.10
2019-03-03T01:58:29.602Z,6.20
2019-03-03T01:59:29.541Z,5.80
2019-03-03T02:00:29.562Z,6.90
2019-03-03T02:01:29.531Z,8.90
2019-03-03T02:02:29.513Z,4.90
2019-03-03T02:03:29.498Z,7.50
2019-03-03T02:04:29.492Z,8.50
2019-03-03T02:05:29.507Z,8.70
2019-03-03T02:06:29.463Z,6.90
2019-03-03T02:07:29.456Z,6.20
2019-03-03T02:08:29.445Z,6.20
2019-03-03T02:09:29.433Z,6.20
2019-03-03T02:10:29.448Z,8.90
2019-03-03T02:11:29.419Z,6.60
2019-03-03T02:12:29.403Z,7.40
2019-03-03T02:13:29.390Z,8.70
2019-03-03T02:14:29.382Z,9.40
2019-03-03T02:15:29.393Z,8.60
2019-03-03T02:16:29.356Z,8.30
2019-03-03T02:17:29.346Z,9.40
2019-03-03T02:18:29.332Z,6.30
2019-03-03T02:19:29.339Z,6.80
2019-03-03T02:20:29.333Z,6.10
2019-03-03T02:21:29.298Z,5.90
2019-03-03T02:22:29.282Z,6.60
2019-03-03T02:23:29.279Z,9.10
2019-03-03T02:24:29.263Z,8.80
2019-03-03T02:25:29.278Z,8.10
2019-03-03T02:26:29.238Z,7.00
2019-03-03T02:27:29.233Z,5.30
2019-03-03T02:28:29.229Z,7.90
2019-03-03T02:29:29.205Z,6.50
2019-03-03T02:30:29.226Z,6.10
2019-03-03T02:31:29.200Z,9.00
2019-03-03T02:32:29.197Z,7.60
2019-03-03T02:33:29.175Z,9.20
2019-03-03T02:34:29.150Z,7.50
2019-03-03T02:35:29.186Z,7.60
2019-03-03T02:36:29.149Z,7.10
2019-03-03T02:37:29.115Z,8.50
2019-03-03T02:38:29.107Z,10.90
2019-03-03T02:39:29.095Z,7.90
2019-03-03T02:40:29.108Z,7.80
2019-03-03T02:41:29.074Z,9.10
2019-03-03T02:42:29.086Z,6.40
2019-03-03T02:43:29.051Z,6.00
2019-03-03T02:44:29.042Z,12.20
2019-03-03T02:45:29.061Z,7.00
2019-03-03T02:46:29.021Z,6.60
2019-03-03T02:47:29.007Z,7.30
2019-03-03T02:48:29.032Z,9.50
2019-03-03T02:49:28.979Z,8.10
2019-03-03T02:50:28.968Z,7.10
2019-03-03T02:51:28.993Z,7.70
2019-03-03T02:52:28.949Z,5.20
2019-03-03T02:53:28.939Z,5.70
2019-03-03T02:54:28.924Z,6.10
2019-03-03T02:55:28.958Z,7.40
2019-03-03T02:56:28.903Z,9.10
2019-03-03T02:57:28.890Z,9.60
2019-03-03T02:58:28.881Z,6.20
2019-03-03T02:59:28.872Z,7.50
2019-03-03T03:00:28.867Z,5.80
2019-03-03T03:01:28.886Z,9.60
2019-03-03T03:02:28.832Z,9.70
2019-03-03T03:03:28.824Z,7.60
2019-03-03T03:04:28.821Z,7.90
2019-03-03T03:05:28.797Z,7.70
2019-03-03T03:06:28.824Z,7.60
2019-03-03T03:07:28.811Z,8.10
2019-03-03T03:08:28.764Z,7.10
2019-03-03T03:09:28.752Z,6.20
2019-03-03T03:10:28.743Z,8.50
2019-03-03T03:11:28.763Z,7.50
2019-03-03T03:12:28.730Z,6.90
2019-03-03T03:13:28.708Z,8.00
2019-03-03T03:14:28.703Z,8.30
2019-03-03T03:15:28.707Z,7.20
2019-03-03T03:16:28.828Z,7.80
2019-03-03T03:17:28.680Z,9.90
2019-03-03T03:18:28.651Z,7.50
2019-03-03T03:19:28.646Z,9.60
2019-03-03T03:20:28.631Z,10.70
2019-03-03T03:21:28.651Z,7.10
2019-03-03T03:22:28.607Z,7.20
2019-03-03T03:23:28.600Z,8.90
2019-03-03T03:24:28.595Z,7.00
2019-03-03T03:25:28.573Z,7.90
2019-03-03T03:26:28.596Z,6.70
2019-03-03T03:27:28.556Z,10.10
2019-03-03T03:28:28.557Z,7.10
2019-03-03T03:29:28.530Z,10.80
2019-03-03T03:30:28.523Z,5.80
2019-03-03T03:31:28.545Z,7.40
2019-03-03T03:32:28.513Z,9.80
2019-03-03T03:33:28.489Z,6.90
2019-03-03T03:34:28.688Z,6.50
2019-03-03T03:35:28.461Z,8.90
2019-03-03T03:36:28.498Z,9.00
2019-03-03T03:37:28.437Z,7.10
2019-03-03T03:38:28.439Z,8.30
2019-03-03T03:39:28.413Z,8.40
2019-03-03T03:40:28.403Z,8.90
2019-03-03T03:41:28.430Z,6.20
2019-03-03T03:42:28.463Z,9.10
2019-03-03T03:43:28.370Z,10.20
2019-03-03T03:44:28.365Z,8.60
2019-03-03T03:45:28.373Z,8.60
2019-03-03T03:46:28.393Z,6.60
2019-03-03T03:47:28.344Z,8.00
2019-03-03T03:48:28.313Z,8.70
2019-03-03T03:49:28.314Z,7.00
2019-03-03T03:50:28.296Z,8.50
2019-03-03T03:51:28.311Z,7.60
2019-03-03T03:52:28.268Z,8.60
2019-03-03T03:53:28.254Z,8.80
2019-03-03T03:54:28.245Z,9.70
2019-03-03T03:55:28.241Z,9.50
2019-03-03T03:56:28.246Z,8.50
2019-03-03T03:57:28.222Z,6.10
2019-03-03T03:58:28.205Z,12.20
2019-03-03T03:59:28.190Z,10.00
2019-03-03T04:00:28.185Z,5.70
2019-03-03T04:01:28.190Z,10.10
2019-03-03T04:02:28.164Z,10.30
2019-03-03T04:03:28.140Z,11.00
2019-03-03T04:04:28.162Z,7.90
2019-03-03T04:05:28.131Z,7.30
2019-03-03T04:06:28.139Z,9.00
2019-03-03T04:07:28.113Z,9.00
2019-03-03T04:08:28.089Z,10.50
2019-03-03T04:09:28.075Z,7.40
2019-03-03T04:10:28.064Z,10.10
2019-03-03T04:11:28.080Z,7.30
2019-03-03T04:12:28.052Z,7.50
2019-03-03T04:13:28.031Z,7.90
2019-03-03T04:14:28.045Z,10.80
2019-03-03T04:15:28.032Z,9.10
2019-03-03T04:16:30.200Z,8.00
2019-03-03T04:17:27.987Z,11.10
2019-03-03T04:18:27.997Z,8.50
2019-03-03T04:19:27.964Z,10.00
2019-03-03T04:20:27.964Z,11.00
2019-03-03T04:21:27.970Z,10.50
2019-03-03T04:22:27.929Z,8.90
2019-03-03T04:23:27.919Z,10.10
2019-03-03T04:24:27.942Z,8.80
2019-03-03T04:25:27.908Z,10.80
2019-03-03T04:26:27.917Z,9.90
2019-03-03T04:27:27.893Z,7.60
2019-03-03T04:28:27.868Z,10.80
2019-03-03T04:29:27.853Z,10.50
2019-03-03T04:30:27.855Z,9.20
2019-03-03T04:31:27.850Z,12.30
2019-03-03T04:32:27.819Z,7.20
2019-03-03T04:33:27.810Z,10.90
2019-03-03T04:34:27.796Z,12.40
2019-03-03T04:35:27.805Z,9.40
2019-03-03T04:36:27.774Z,7.50
2019-03-03T04:37:27.781Z,9.70
2019-03-03T04:38:27.754Z,10.90
2019-03-03T04:39:27.737Z,12.20
2019-03-03T04:40:27.726Z,11.30
2019-03-03T04:41:27.715Z,7.80
2019-03-03T04:42:27.725Z,10.30
2019-03-03T04:43:27.705Z,8.20
2019-03-03T04:44:27.692Z,10.10
2019-03-03T04:45:27.666Z,9.80
2019-03-03T04:46:27.659Z,8.00
2019-03-03T04:47:27.668Z,12.00
2019-03-03T04:48:27.636Z,9.30
2019-03-03T04:49:27.625Z,7.30
2019-03-03T04:50:27.611Z,10.30
2019-03-03T04:51:27.607Z,7.50
2019-03-03T04:52:27.618Z,8.20
2019-03-03T04:53:27.580Z,12.00
2019-03-03T04:54:27.571Z,9.80
2019-03-03T04:55:27.555Z,8.20
2019-03-03T04:56:27.552Z,9.90
2019-03-03T04:57:27.560Z,7.50
2019-03-03T04:58:27.530Z,8.90
2019-03-03T04:59:27.510Z,8.10
2019-03-03T05:00:27.508Z,9.00
2019-03-03T05:01:27.485Z,10.10
2019-03-03T05:02:27.502Z,7.60
2019-03-03T05:03:27.475Z,8.10
2019-03-03T05:04:27.455Z,8.10
2019-03-03T05:05:27.443Z,11.00
2019-03-03T05:06:27.432Z,9.00
2019-03-03T05:07:27.448Z,9.00
2019-03-03T05:08:27.407Z,12.10
2019-03-03T05:09:27.397Z,8.40
2019-03-03T05:10:27.388Z,9.30
2019-03-03T05:11:28.216Z,10.30
2019-03-03T05:12:27.389Z,11.40
2019-03-03T05:13:27.360Z,11.00
2019-03-03T05:14:27.343Z,9.40
2019-03-03T05:15:27.337Z,9.60
2019-03-03T05:16:27.322Z,8.50
2019-03-03T05:17:30.503Z,11.40
2019-03-03T05:18:27.295Z,9.90
2019-03-03T05:19:27.308Z,8.80
2019-03-03T05:20:27.280Z,9.30
2019-03-03T05:21:27.259Z,10.80
2019-03-03T05:22:27.273Z,10.50
2019-03-03T05:23:27.253Z,11.20
2019-03-03T05:24:34.045Z,11.90
2019-03-03T05:25:28.213Z,8.90
2019-03-03T05:26:27.212Z,10.40
2019-03-03T05:27:27.220Z,8.20
2019-03-03T05:28:27.194Z,8.50
2019-03-03T05:29:27.177Z,9.90
2019-03-03T05:30:27.162Z,11.00
2019-03-03T05:31:29.316Z,7.00
2019-03-03T05:32:27.166Z,11.80
2019-03-03T05:33:27.128Z,9.70
2019-03-03T05:34:27.114Z,9.30
2019-03-03T05:35:27.110Z,9.50
2019-03-03T05:36:27.089Z,8.60
2019-03-03T05:37:27.105Z,10.30
2019-03-03T05:38:27.068Z,8.70
2019-03-03T05:39:27.058Z,8.80
2019-03-03T05:40:27.055Z,10.80
2019-03-03T05:41:27.037Z,9.90
2019-03-03T05:42:27.050Z,9.20
2019-03-03T05:43:27.015Z,7.50
2019-03-03T05:44:27.007Z,10.20
2019-03-03T05:45:26.989Z,9.20
2019-03-03T05:46:26.986Z,7.20
2019-03-03T05:47:26.993Z,9.60
2019-03-03T05:48:26.954Z,8.50
2019-03-03T05:49:26.945Z,8.40
2019-03-03T05:50:26.978Z,10.00
2019-03-03T05:51:26.927Z,8.20
2019-03-03T05:52:26.939Z,10.90
2019-03-03T05:53:26.896Z,9.10
2019-03-03T05:54:26.888Z,9.60
2019-03-03T05:55:26.879Z,7.50
2019-03-03T05:56:26.875Z,10.00
2019-03-03T05:57:26.891Z,11.50
2019-03-03T05:58:26.845Z,10.10
2019-03-03T05:59:26.835Z,9.60
2019-03-03T06:00:26.817Z,9.70
2019-03-03T06:01:26.819Z,8.50
2019-03-03T06:02:26.842Z,8.80
2019-03-03T06:03:26.784Z,8.80
2019-03-03T06:04:26.782Z,9.90
2019-03-03T06:05:26.769Z,6.10
2019-03-03T06:06:26.753Z,10.60
2019-03-03T06:07:26.765Z,9.90
2019-03-03T06:08:26.733Z,11.10
2019-03-03T06:09:26.716Z,10.80
2019-03-03T06:10:26.714Z,9.10
2019-03-03T06:11:26.699Z,10.20
2019-03-03T06:12:26.711Z,10.30
2019-03-03T06:13:26.676Z,7.70
2019-03-03T06:14:26.661Z,10.40
2019-03-03T06:15:26.657Z,10.40
2019-03-03T06:16:26.637Z,9.30
2019-03-03T06:17:26.639Z,9.10
2019-03-03T06:18:30.850Z,10.60
2019-03-03T06:19:26.610Z,8.20
2019-03-03T06:20:27.882Z,10.10
2019-03-03T06:21:26.589Z,9.50
2019-03-03T06:22:26.594Z,8.50
2019-03-03T06:23:26.590Z,10.20
2019-03-03T06:24:26.550Z,7.90
2019-03-03T06:25:26.551Z,6.20
2019-03-03T06:26:26.527Z,8.70
2019-03-03T06:27:26.533Z,7.60
2019-03-03T06:28:26.525Z,8.20
2019-03-03T06:29:26.492Z,8.30
2019-03-03T06:30:26.480Z,6.80
2019-03-03T06:31:26.469Z,11.20
2019-03-03T06:32:26.458Z,9.20
2019-03-03T06:33:26.483Z,9.40
2019-03-03T06:34:26.434Z,9.40
2019-03-03T06:35:26.431Z,11.30
2019-03-03T06:36:26.410Z,8.50
2019-03-03T06:37:26.405Z,7.90
2019-03-03T06:38:26.418Z,12.70
2019-03-03T06:39:26.378Z,9.70
2019-03-03T06:40:26.368Z,10.40
2019-03-03T06:41:26.359Z,10.20
2019-03-03T06:42:26.358Z,11.10
2019-03-03T06:43:26.361Z,7.50
2019-03-03T06:44:26.329Z,9.30
2019-03-03T06:45:26.317Z,10.60
2019-03-03T06:46:26.307Z,9.40
2019-03-03T06:47:26.296Z,12.50
2019-03-03T06:48:26.299Z,10.80
2019-03-03T06:49:26.264Z,9.00
2019-03-03T06:50:26.261Z,11.00
2019-03-03T06:51:26.245Z,11.40
2019-03-03T06:52:26.239Z,10.90
2019-03-03T06:53:26.258Z,10.00
2019-03-03T06:54:26.212Z,9.80
2019-03-03T06:55:26.198Z,10.00
2019-03-03T06:56:26.185Z,9.10
2019-03-03T06:57:26.181Z,10.80
2019-03-03T06:58:26.195Z,7.50
2019-03-03T06:59:26.153Z,9.10
2019-03-03T07:00:26.146Z,9.20
2019-03-03T07:01:26.130Z,12.20
2019-03-03T07:02:26.125Z,9.50
2019-03-03T07:03:26.131Z,9.30
2019-03-03T07:04:26.094Z,8.70
2019-03-03T07:05:26.211Z,8.60
2019-03-03T07:06:26.072Z,12.70
2019-03-03T07:07:26.060Z,8.90
2019-03-03T07:08:26.115Z,9.00
2019-03-03T07:09:26.039Z,10.20
2019-03-03T07:10:26.038Z,12.40
2019-03-03T07:11:26.016Z,10.90
2019-03-03T07:12:26.007Z,11.50
2019-03-03T07:13:26.049Z,12.40
2019-03-03T07:14:25.982Z,10.80
2019-03-03T07:15:25.983Z,9.00
2019-03-03T07:16:26.509Z,12.20
2019-03-03T07:17:25.947Z,11.60
2019-03-03T07:18:25.961Z,10.10
2019-03-03T07:19:25.940Z,9.00
2019-03-03T07:20:25.915Z,8.80
2019-03-03T07:21:25.906Z,10.40
2019-03-03T07:22:25.899Z,11.20
2019-03-03T07:23:25.905Z,11.00
2019-03-03T07:24:25.877Z,10.20
2019-03-03T07:25:25.867Z,11.30
2019-03-03T07:26:25.848Z,9.60
2019-03-03T07:27:25.844Z,11.00
2019-03-03T07:28:25.857Z,9.70
2019-03-03T07:29:25.819Z,8.70
2019-03-03T07:30:25.803Z,9.90
2019-03-03T07:31:25.789Z,9.80
2019-03-03T07:32:25.784Z,13.10
2019-03-03T07:33:25.795Z,12.20
2019-03-03T07:34:25.760Z,8.70
2019-03-03T07:35:25.746Z,11.70
2019-03-03T07:36:25.738Z,9.30
2019-03-03T07:37:25.724Z,7.80
2019-03-03T07:38:25.742Z,11.00
2019-03-03T07:39:25.699Z,10.70
2019-03-03T07:40:25.702Z,10.10
2019-03-03T07:41:25.681Z,11.30
2019-03-03T07:42:25.666Z,11.30
2019-03-03T07:43:25.681Z,12.60
2019-03-03T07:44:25.664Z,10.40
2019-03-03T07:45:25.633Z,10.30
2019-03-03T07:46:25.632Z,11.20
2019-03-03T07:47:25.612Z,12.10
2019-03-03T07:48:25.622Z,9.90
2019-03-03T07:49:25.585Z,7.30
2019-03-03T07:50:25.577Z,10.50
2019-03-03T07:51:25.568Z,9.90
2019-03-03T07:52:25.562Z,9.70
2019-03-03T07:53:25.569Z,12.50
2019-03-03T07:54:25.534Z,11.20
2019-03-03T07:55:25.535Z,10.50
2019-03-03T07:56:25.506Z,9.10
2019-03-03T07:57:25.553Z,9.80
2019-03-03T07:58:25.519Z,13.10
2019-03-03T07:59:25.476Z,10.70
2019-03-03T08:00:25.468Z,11.30
2019-03-03T08:01:25.452Z,9.70
2019-03-03T08:02:25.443Z,10.90
2019-03-03T08:03:25.446Z,13.30
2019-03-03T08:04:25.443Z,10.60
2019-03-03T08:05:25.405Z,9.70
2019-03-03T08:06:25.405Z,9.50
2019-03-03T08:07:25.385Z,10.50
2019-03-03T08:08:25.372Z,8.90
2019-03-03T08:09:25.392Z,11.80
2019-03-03T08:10:25.355Z,11.20
2019-03-03T08:11:25.352Z,7.50
2019-03-03T08:12:25.342Z,10.00
2019-03-03T08:13:25.325Z,11.60
2019-03-03T08:14:25.350Z,13.80
2019-03-03T08:15:25.293Z,11.40
2019-03-03T08:16:25.282Z,9.40
2019-03-03T08:17:25.271Z,10.50
2019-03-03T08:18:25.279Z,8.80
2019-03-03T08:19:25.282Z,7.40
2019-03-03T08:20:25.239Z,11.00
2019-03-03T08:21:25.230Z,10.60
2019-03-03T08:22:25.217Z,10.60
2019-03-03T08:23:25.217Z,10.90
2019-03-03T08:24:25.244Z,11.10
2019-03-03T08:25:25.198Z,9.40
2019-03-03T08:26:25.166Z,10.80
2019-03-03T08:27:25.165Z,7.60
2019-03-03T08:28:25.166Z,10.00
2019-03-03T08:29:25.163Z,11.20
2019-03-03T08:30:25.132Z,12.50
2019-03-03T08:31:25.119Z,7.20
2019-03-03T08:32:25.102Z,11.90
2019-03-03T08:33:25.087Z,9.80
2019-03-03T08:34:25.109Z,6.20
2019-03-03T08:35:25.067Z,8.40
2019-03-03T08:36:25.053Z,8.90
2019-03-03T08:37:25.045Z,10.40
2019-03-03T08:38:25.032Z,8.50
2019-03-03T08:39:25.050Z,6.90
2019-03-03T08:40:25.017Z,8.60
2019-03-03T08:41:25.014Z,8.30
2019-03-03T08:42:24.986Z,6.20
2019-03-03T08:43:24.977Z,7.20
2019-03-03T08:44:24.986Z,7.10
2019-03-03T08:45:24.951Z,4.70
2019-03-03T08:46:24.940Z,6.60
2019-03-03T08:47:24.940Z,5.40
2019-03-03T08:48:24.918Z,5.80
2019-03-03T08:49:24.934Z,8.40
2019-03-03T08:50:24.901Z,8.40
2019-03-03T08:51:24.884Z,8.10
2019-03-03T08:52:24.873Z,5.20
2019-03-03T08:53:24.863Z,7.20
2019-03-03T08:54:24.877Z,7.40
2019-03-03T08:55:24.839Z,6.70
2019-03-03T08:56:24.861Z,7.90
2019-03-03T08:57:24.816Z,4.50
2019-03-03T08:58:24.813Z,8.10
2019-03-03T08:59:24.819Z,5.80
2019-03-03T09:00:24.786Z,5.90
2019-03-03T09:01:24.771Z,6.40
2019-03-03T09:02:24.760Z,4.60
2019-03-03T09:03:24.772Z,5.40
2019-03-03T09:04:24.762Z,5.90
2019-03-03T09:05:24.725Z,6.40
2019-03-03T09:06:24.714Z,5.70
2019-03-03T09:07:24.707Z,5.30
2019-03-03T09:08:24.693Z,5.10
2019-03-03T09:09:24.718Z,5.70
2019-03-03T09:10:25.580Z,6.20
2019-03-03T09:11:24.663Z,5.60
2019-03-03T09:12:24.647Z,6.40
2019-03-03T09:13:24.645Z,6.10
2019-03-03T09:14:24.649Z,5.60
2019-03-03T09:15:24.621Z,6.10
2019-03-03T09:16:24.602Z,5.60
2019-03-03T09:17:24.595Z,8.00
2019-03-03T09:18:24.580Z,4.70
2019-03-03T09:19:24.605Z,5.80
2019-03-03T09:20:24.650Z,4.80
2019-03-03T09:21:24.547Z,4.30
2019-03-03T09:22:24.544Z,5.90
2019-03-03T09:23:24.524Z,5.20
2019-03-03T09:24:24.512Z,4.40
2019-03-03T09:25:24.529Z,5.30
2019-03-03T09:26:24.489Z,4.40
2019-03-03T09:27:24.476Z,4.40
2019-03-03T09:28:24.478Z,5.40
2019-03-03T09:29:24.478Z,5.10
2019-03-03T09:30:24.472Z,6.20
2019-03-03T09:31:24.465Z,5.40
2019-03-03T09:32:24.419Z,4.30
2019-03-03T09:33:24.424Z,4.40
2019-03-03T09:34:24.398Z,4.10
2019-03-03T09:35:24.417Z,4.20
2019-03-03T09:36:24.374Z,4.70
2019-03-03T09:37:24.376Z,4.80
2019-03-03T09:38:24.360Z,4.20
2019-03-03T09:39:24.342Z,4.20
2019-03-03T09:40:24.357Z,3.40
2019-03-03T09:41:24.326Z,3.00
2019-03-03T09:42:24.312Z,3.10
2019-03-03T09:43:24.301Z,4.60
2019-03-03T09:44:24.293Z,3.40
2019-03-03T09:45:24.313Z,4.60
2019-03-03T09:46:24.269Z,5.00
2019-03-03T09:47:24.263Z,3.60
2019-03-03T09:48:24.238Z,4.30
2019-03-03T09:49:24.226Z,4.10
2019-03-03T09:50:24.225Z,3.80
2019-03-03T09:51:24.231Z,6.00
2019-03-03T09:52:24.201Z,5.50
2019-03-03T09:53:24.183Z,3.60
2019-03-03T09:54:24.173Z,4.60
2019-03-03T09:55:24.188Z,3.70
2019-03-03T09:56:24.175Z,4.20
2019-03-03T09:57:24.140Z,4.20
2019-03-03T09:58:24.125Z,3.90
2019-03-03T09:59:24.146Z,3.10
2019-03-03T10:00:24.105Z,4.20
2019-03-03T10:01:24.134Z,4.60
2019-03-03T10:02:24.084Z,3.50
2019-03-03T10:03:24.073Z,2.60
2019-03-03T10:04:24.085Z,5.00
2019-03-03T10:05:24.051Z,4.20
2019-03-03T10:06:24.060Z,4.00
2019-03-03T10:07:24.024Z,4.70
2019-03-03T10:08:24.015Z,3.40
2019-03-03T10:09:24.001Z,3.10
2019-03-03T10:10:23.998Z,2.60
2019-03-03T10:11:24.004Z,2.90
2019-03-03T10:12:24.084Z,4.00
2019-03-03T10:13:23.963Z,5.00
2019-03-03T10:14:23.943Z,4.10
2019-03-03T10:15:23.936Z,5.70
2019-03-03T10:16:23.923Z,4.60
2019-03-03T10:17:23.935Z,5.10
2019-03-03T10:18:23.915Z,3.20
2019-03-03T10:19:23.888Z,4.20
2019-03-03T10:20:23.879Z,3.80
2019-03-03T10:21:23.864Z,4.40
2019-03-03T10:22:23.879Z,3.60
2019-03-03T10:23:23.847Z,4.20
2019-03-03T10:24:23.830Z,3.10
2019-03-03T10:25:23.823Z,6.40
2019-03-03T10:26:23.811Z,4.30
2019-03-03T10:27:23.837Z,4.50
2019-03-03T10:28:23.787Z,4.30
2019-03-03T10:29:23.778Z,3.30
2019-03-03T10:30:23.769Z,3.50
2019-03-03T10:31:23.759Z,4.80
2019-03-03T10:32:23.771Z,5.50
2019-03-03T10:33:23.734Z,4.90
2019-03-03T10:34:23.718Z,4.30
2019-03-03T10:35:23.709Z,3.00
2019-03-03T10:36:23.698Z,3.70
2019-03-03T10:37:23.714Z,3.70
2019-03-03T10:38:23.675Z,3.70
2019-03-03T10:39:23.706Z,2.70
2019-03-03T10:40:23.650Z,2.70
2019-03-03T10:41:23.639Z,4.90
2019-03-03T10:42:23.654Z,3.90
2019-03-03T10:43:23.628Z,4.60
2019-03-03T10:44:23.627Z,3.80
2019-03-03T10:45:23.593Z,3.10
2019-03-03T10:46:23.582Z,2.60
2019-03-03T10:47:23.598Z,4.00
2019-03-03T10:48:23.563Z,2.50
2019-03-03T10:49:23.563Z,5.90
2019-03-03T10:50:23.537Z,3.00
2019-03-03T10:51:23.529Z,5.70
2019-03-03T10:52:23.540Z,3.30
2019-03-03T10:53:23.503Z,3.60
2019-03-03T10:54:23.490Z,2.80
2019-03-03T10:55:23.490Z,3.00
2019-03-03T10:56:23.470Z,2.30
2019-03-03T10:57:23.461Z,1.40
2019-03-03T10:58:23.475Z,2.50
2019-03-03T10:59:23.436Z,4.50
2019-03-03T11:00:23.436Z,2.10
2019-03-03T11:01:23.416Z,2.10
2019-03-03T11:02:23.437Z,3.10
2019-03-03T11:03:23.431Z,2.50
2019-03-03T11:04:23.395Z,2.30
2019-03-03T11:05:23.367Z,2.50
2019-03-03T11:06:23.362Z,3.50
2019-03-03T11:07:23.362Z,4.70
2019-03-03T11:08:23.358Z,2.30
2019-03-03T11:09:23.326Z,1.60
2019-03-03T11:10:23.318Z,2.10
2019-03-03T11:11:23.309Z,1.90
2019-03-03T11:12:23.287Z,2.80
2019-03-03T11:13:24.290Z,1.30
2019-03-03T11:14:23.267Z,1.70
2019-03-03T11:15:23.258Z,2.20
2019-03-03T11:16:23.250Z,1.70
2019-03-03T11:17:23.232Z,1.70
2019-03-03T11:18:23.250Z,3.20
2019-03-03T11:19:23.212Z,2.40
2019-03-03T11:20:23.197Z,1.60
2019-03-03T11:21:23.197Z,1.80
2019-03-03T11:22:23.178Z,2.40
2019-03-03T11:23:23.202Z,2.80
2019-03-03T11:24:23.151Z,2.40
2019-03-03T11:25:23.142Z,1.90
2019-03-03T11:26:23.132Z,1.90
2019-03-03T11:27:23.135Z,2.50
2019-03-03T11:28:23.906Z,3.00
2019-03-03T11:29:23.100Z,3.10
2019-03-03T11:30:23.088Z,2.00
2019-03-03T11:31:23.080Z,2.00
2019-03-03T11:32:23.067Z,2.40
2019-03-03T11:33:23.079Z,1.20
2019-03-03T11:34:23.060Z,1.70
2019-03-03T11:35:23.045Z,1.30
2019-03-03T11:36:23.017Z,2.60
2019-03-03T11:37:23.015Z,1.10
2019-03-03T11:38:23.022Z,3.10
2019-03-03T11:39:22.981Z,1.60
2019-03-03T11:40:22.997Z,1.10
2019-03-03T11:41:22.961Z,1.40
2019-03-03T11:42:22.951Z,3.10
2019-03-03T11:43:22.938Z,1.20
2019-03-03T11:44:22.956Z,2.20
2019-03-03T11:45:22.915Z,1.60
2019-03-03T11:46:22.911Z,1.60
2019-03-03T11:47:22.893Z,0.90
2019-03-03T11:48:22.883Z,1.30
2019-03-03T11:49:22.898Z,0.80
2019-03-03T11:50:22.857Z,2.40
2019-03-03T11:51:22.847Z,1.50
2019-03-03T11:52:22.849Z,1.20
2019-03-03T11:53:23.060Z,9.70
2019-03-03T11:54:22.842Z,1.90
2019-03-03T11:55:22.839Z,2.10
2019-03-03T11:56:22.805Z,2.90
2019-03-03T11:57:22.782Z,2.30
2019-03-03T11:58:22.772Z,2.60
2019-03-03T11:59:22.797Z,1.70
2019-03-03T12:00:22.745Z,2.90
2019-03-03T12:01:22.742Z,3.10
2019-03-03T12:02:22.730Z,3.00
2019-03-03T12:03:22.735Z,2.40
2019-03-03T12:04:22.727Z,3.20
2019-03-03T12:05:22.732Z,2.20
2019-03-03T12:06:22.687Z,3.80
2019-03-03T12:07:22.679Z,2.50
2019-03-03T12:08:22.668Z,2.70
2019-03-03T12:09:22.667Z,2.80
2019-03-03T12:10:22.642Z,3.00
2019-03-03T12:11:22.622Z,2.40
2019-03-03T12:12:22.608Z,1.70
2019-03-03T12:13:22.603Z,3.90
2019-03-03T12:14:22.619Z,4.20
2019-03-03T12:15:22.589Z,1.70
2019-03-03T12:16:22.565Z,3.10
2019-03-03T12:17:22.552Z,4.50
2019-03-03T12:18:24.666Z,2.90
2019-03-03T12:19:22.559Z,1.80
2019-03-03T12:20:22.530Z,3.20
2019-03-03T12:21:22.549Z,2.30
2019-03-03T12:22:22.494Z,3.20
2019-03-03T12:23:22.484Z,3.70
2019-03-03T12:24:22.504Z,3.30
2019-03-03T12:25:22.570Z,2.40
2019-03-03T12:26:22.454Z,2.20
2019-03-03T12:27:22.443Z,2.40
2019-03-03T12:28:22.436Z,2.60
2019-03-03T12:29:22.423Z,2.00
2019-03-03T12:30:22.431Z,2.00
2019-03-03T12:31:22.401Z,3.50
2019-03-03T12:32:22.387Z,4.40
2019-03-03T12:33:22.376Z,3.70
2019-03-03T12:34:22.385Z,2.80
2019-03-03T12:35:22.381Z,2.50
2019-03-03T12:36:22.343Z,4.40
2019-03-03T12:37:22.328Z,2.30
2019-03-03T12:38:22.324Z,3.20
2019-03-03T12:39:22.306Z,2.30
2019-03-03T12:40:22.316Z,3.00
2019-03-03T12:41:22.290Z,2.70
2019-03-03T12:42:22.269Z,2.40
2019-03-03T12:43:22.260Z,1.70
2019-03-03T12:44:22.247Z,2.60
2019-03-03T12:45:22.267Z,2.00
2019-03-03T12:46:22.239Z,2.30
2019-03-03T12:47:22.216Z,3.70
2019-03-03T12:48:22.205Z,3.00
2019-03-03T12:49:22.209Z,3.40
2019-03-03T12:50:22.202Z,1.90
2019-03-03T12:51:22.173Z,3.80
2019-03-03T12:52:22.157Z,2.50
2019-03-03T12:53:22.147Z,3.50
2019-03-03T12:54:22.144Z,1.70
2019-03-03T12:55:22.154Z,2.40
2019-03-03T12:56:22.112Z,2.30
2019-03-03T12:57:22.108Z,2.30
2019-03-03T12:58:22.100Z,1.90
2019-03-03T12:59:22.083Z,1.30
2019-03-03T13:00:22.093Z,2.30
2019-03-03T13:01:23.752Z,1.90
2019-03-03T13:02:22.089Z,2.00
2019-03-03T13:03:22.031Z,3.70
2019-03-03T13:04:22.039Z,2.40
2019-03-03T13:05:22.041Z,3.20
2019-03-03T13:06:24.531Z,3.20
2019-03-03T13:07:21.985Z,2.00
2019-03-03T13:08:21.976Z,1.70
2019-03-03T13:09:21.974Z,1.80
2019-03-03T13:10:22.002Z,2.60
2019-03-03T13:11:21.957Z,2.40
2019-03-03T13:12:21.935Z,2.40
2019-03-03T13:13:21.917Z,3.30